sensor_id;sensor_type;location;lat;lon;timestamp;P1;durP1;ratioP1;P2;durP2;ratioP2
25838;SDS011;13669;50.186;27.062;2022-10-31T00:01:28;10.90;;;6.03;;
25838;SDS011;13669;50.186;27.062;2022-10-31T00:03:58;14.80;;;6.63;;
25838;SDS011;13669;50.186;27.062;2022-10-31T00:06:25;14.20;;;6.65;;
25838;SDS011;13669;50.186;27.062;2022-10-31T00:08:54;13.02;;;6.53;;
25838;SDS011;13669;50.186;27.062;2022-10-31T00:11:23;12.45;;;5.95;;
25838;SDS011;13669;50.186;27.062;2022-10-31T00:13:51;12.73;;;6.93;;
25838;SDS011;13669;50.186;27.062;2022-10-31T00:16:22;13.32;;;6.10;;
25838;SDS011;13669;50.186;27.062;2022-10-31T00:19:01;13.50;;;6.22;;
25838;SDS011;13669;50.186;27.062;2022-10-31T00:21:30;14.93;;;6.15;;
25838;SDS011;13669;50.186;27.062;2022-10-31T00:23:59;14.63;;;6.50;;
25838;SDS011;13669;50.186;27.062;2022-10-31T00:26:27;10.88;;;6.32;;
25838;SDS011;13669;50.186;27.062;2022-10-31T00:28:55;14.52;;;5.43;;
25838;SDS011;13669;50.186;27.062;2022-10-31T00:31:24;15.55;;;5.90;;
25838;SDS011;13669;50.186;27.062;2022-10-31T00:33:51;9.70;;;5.93;;
25838;SDS011;13669;50.186;27.062;2022-10-31T00:36:19;12.13;;;5.63;;
25838;SDS011;13669;50.186;27.062;2022-10-31T00:38:47;12.32;;;5.75;;
25838;SDS011;13669;50.186;27.062;2022-10-31T00:41:15;16.77;;;6.03;;
25838;SDS011;13669;50.186;27.062;2022-10-31T00:43:44;11.38;;;6.18;;
25838;SDS011;13669;50.186;27.062;2022-10-31T00:46:12;13.98;;;5.22;;
25838;SDS011;13669;50.186;27.062;2022-10-31T00:48:42;11.57;;;4.78;;
25838;SDS011;13669;50.186;27.062;2022-10-31T00:51:09;10.02;;;4.55;;
25838;SDS011;13669;50.186;27.062;2022-10-31T00:53:37;11.27;;;4.82;;
25838;SDS011;13669;50.186;27.062;2022-10-31T00:56:04;10.57;;;4.80;;
25838;SDS011;13669;50.186;27.062;2022-10-31T00:58:32;10.15;;;4.35;;
25838;SDS011;13669;50.186;27.062;2022-10-31T01:01:00;10.32;;;4.88;;
25838;SDS011;13669;50.186;27.062;2022-10-31T01:03:28;8.90;;;4.38;;
25838;SDS011;13669;50.186;27.062;2022-10-31T01:08:28;10.93;;;4.35;;
25838;SDS011;13669;50.186;27.062;2022-10-31T01:13:35;8.57;;;4.35;;
25838;SDS011;13669;50.186;27.062;2022-10-31T01:16:03;8.45;;;4.45;;
25838;SDS011;13669;50.186;27.062;2022-10-31T01:18:31;10.27;;;4.93;;
25838;SDS011;13669;50.186;27.062;2022-10-31T01:21:04;11.25;;;4.75;;
25838;SDS011;13669;50.186;27.062;2022-10-31T01:23:33;12.93;;;5.00;;
25838;SDS011;13669;50.186;27.062;2022-10-31T01:26:10;12.70;;;4.90;;
25838;SDS011;13669;50.186;27.062;2022-10-31T01:28:53;9.38;;;4.72;;
25838;SDS011;13669;50.186;27.062;2022-10-31T01:31:23;10.02;;;4.47;;
25838;SDS011;13669;50.186;27.062;2022-10-31T01:33:53;9.38;;;4.75;;
25838;SDS011;13669;50.186;27.062;2022-10-31T01:36:22;7.35;;;4.50;;
25838;SDS011;13669;50.186;27.062;2022-10-31T01:38:55;9.63;;;4.68;;
25838;SDS011;13669;50.186;27.062;2022-10-31T01:41:26;12.68;;;4.57;;
25838;SDS011;13669;50.186;27.062;2022-10-31T01:46:29;10.57;;;3.97;;
25838;SDS011;13669;50.186;27.062;2022-10-31T01:49:04;8.35;;;4.10;;
25838;SDS011;13669;50.186;27.062;2022-10-31T01:51:36;15.50;;;4.43;;
25838;SDS011;13669;50.186;27.062;2022-10-31T01:54:10;9.48;;;3.63;;
25838;SDS011;13669;50.186;27.062;2022-10-31T01:56:41;11.73;;;4.45;;
25838;SDS011;13669;50.186;27.062;2022-10-31T01:59:11;13.65;;;4.63;;
25838;SDS011;13669;50.186;27.062;2022-10-31T02:01:42;10.52;;;4.95;;
25838;SDS011;13669;50.186;27.062;2022-10-31T02:04:10;10.60;;;5.00;;
25838;SDS011;13669;50.186;27.062;2022-10-31T02:09:37;8.48;;;4.18;;
25838;SDS011;13669;50.186;27.062;2022-10-31T02:12:05;10.40;;;4.35;;
25838;SDS011;13669;50.186;27.062;2022-10-31T02:14:35;10.02;;;4.60;;
25838;SDS011;13669;50.186;27.062;2022-10-31T02:17:04;12.77;;;4.53;;
25838;SDS011;13669;50.186;27.062;2022-10-31T02:19:46;11.68;;;4.82;;
25838;SDS011;13669;50.186;27.062;2022-10-31T02:33:35;11.15;;;4.50;;
25838;SDS011;13669;50.186;27.062;2022-10-31T02:45:11;10.30;;;5.15;;
25838;SDS011;13669;50.186;27.062;2022-10-31T02:47:48;13.52;;;5.50;;
25838;SDS011;13669;50.186;27.062;2022-10-31T02:50:19;12.45;;;5.90;;
25838;SDS011;13669;50.186;27.062;2022-10-31T02:52:53;12.38;;;5.65;;
25838;SDS011;13669;50.186;27.062;2022-10-31T02:57:56;14.18;;;6.45;;
25838;SDS011;13669;50.186;27.062;2022-10-31T03:00:43;12.35;;;6.50;;
25838;SDS011;13669;50.186;27.062;2022-10-31T03:06:14;13.88;;;6.22;;
25838;SDS011;13669;50.186;27.062;2022-10-31T03:09:00;10.18;;;5.28;;
25838;SDS011;13669;50.186;27.062;2022-10-31T03:12:01;13.77;;;5.40;;
25838;SDS011;13669;50.186;27.062;2022-10-31T03:17:15;10.73;;;4.47;;
25838;SDS011;13669;50.186;27.062;2022-10-31T03:19:49;12.35;;;5.72;;
25838;SDS011;13669;50.186;27.062;2022-10-31T03:22:20;13.15;;;6.03;;
25838;SDS011;13669;50.186;27.062;2022-10-31T03:24:50;13.23;;;5.90;;
25838;SDS011;13669;50.186;27.062;2022-10-31T03:27:21;14.27;;;5.05;;
25838;SDS011;13669;50.186;27.062;2022-10-31T03:32:27;8.73;;;4.95;;
25838;SDS011;13669;50.186;27.062;2022-10-31T03:34:59;11.15;;;4.78;;
25838;SDS011;13669;50.186;27.062;2022-10-31T03:37:29;9.75;;;4.50;;
25838;SDS011;13669;50.186;27.062;2022-10-31T03:40:01;12.88;;;4.75;;
25838;SDS011;13669;50.186;27.062;2022-10-31T03:42:31;9.77;;;4.13;;
25838;SDS011;13669;50.186;27.062;2022-10-31T03:47:33;11.00;;;3.70;;
25838;SDS011;13669;50.186;27.062;2022-10-31T03:50:04;12.13;;;4.35;;
25838;SDS011;13669;50.186;27.062;2022-10-31T03:55:51;10.00;;;3.40;;
25838;SDS011;13669;50.186;27.062;2022-10-31T03:58:25;9.35;;;3.78;;
25838;SDS011;13669;50.186;27.062;2022-10-31T04:00:55;12.52;;;3.65;;
25838;SDS011;13669;50.186;27.062;2022-10-31T04:03:26;9.13;;;3.35;;
25838;SDS011;13669;50.186;27.062;2022-10-31T04:05:58;8.32;;;3.33;;
25838;SDS011;13669;50.186;27.062;2022-10-31T04:08:30;5.28;;;2.85;;
25838;SDS011;13669;50.186;27.062;2022-10-31T04:11:00;6.28;;;2.45;;
25838;SDS011;13669;50.186;27.062;2022-10-31T04:13:31;7.40;;;2.53;;
25838;SDS011;13669;50.186;27.062;2022-10-31T04:16:01;7.38;;;3.13;;
25838;SDS011;13669;50.186;27.062;2022-10-31T04:18:28;5.28;;;2.75;;
25838;SDS011;13669;50.186;27.062;2022-10-31T04:20:59;5.88;;;2.92;;
25838;SDS011;13669;50.186;27.062;2022-10-31T04:23:28;6.78;;;2.92;;
25838;SDS011;13669;50.186;27.062;2022-10-31T04:25:56;6.30;;;2.58;;
25838;SDS011;13669;50.186;27.062;2022-10-31T04:28:24;3.53;;;2.00;;
25838;SDS011;13669;50.186;27.062;2022-10-31T04:30:51;4.30;;;1.90;;
25838;SDS011;13669;50.186;27.062;2022-10-31T04:33:19;5.63;;;2.30;;
25838;SDS011;13669;50.186;27.062;2022-10-31T04:35:47;7.00;;;2.47;;
25838;SDS011;13669;50.186;27.062;2022-10-31T04:38:14;5.78;;;2.83;;
25838;SDS011;13669;50.186;27.062;2022-10-31T04:40:42;4.70;;;2.15;;
25838;SDS011;13669;50.186;27.062;2022-10-31T04:43:09;8.80;;;2.60;;
25838;SDS011;13669;50.186;27.062;2022-10-31T04:45:37;5.00;;;2.40;;
25838;SDS011;13669;50.186;27.062;2022-10-31T04:48:05;8.73;;;2.15;;
25838;SDS011;13669;50.186;27.062;2022-10-31T04:50:32;6.30;;;2.50;;
25838;SDS011;13669;50.186;27.062;2022-10-31T04:52:59;5.25;;;2.17;;
25838;SDS011;13669;50.186;27.062;2022-10-31T04:55:27;10.90;;;5.03;;
25838;SDS011;13669;50.186;27.062;2022-10-31T04:57:54;10.30;;;4.75;;
25838;SDS011;13669;50.186;27.062;2022-10-31T05:00:22;8.48;;;3.30;;
25838;SDS011;13669;50.186;27.062;2022-10-31T05:02:51;11.52;;;3.58;;
25838;SDS011;13669;50.186;27.062;2022-10-31T05:05:21;12.35;;;6.47;;
25838;SDS011;13669;50.186;27.062;2022-10-31T05:07:51;7.25;;;3.92;;
25838;SDS011;13669;50.186;27.062;2022-10-31T05:10:20;6.57;;;2.85;;
25838;SDS011;13669;50.186;27.062;2022-10-31T05:12:51;7.20;;;2.95;;
25838;SDS011;13669;50.186;27.062;2022-10-31T05:15:20;5.20;;;2.72;;
25838;SDS011;13669;50.186;27.062;2022-10-31T05:17:49;6.05;;;2.45;;
25838;SDS011;13669;50.186;27.062;2022-10-31T05:20:17;6.00;;;2.30;;
25838;SDS011;13669;50.186;27.062;2022-10-31T05:22:47;5.68;;;2.47;;
25838;SDS011;13669;50.186;27.062;2022-10-31T05:25:17;6.82;;;2.75;;
25838;SDS011;13669;50.186;27.062;2022-10-31T05:27:45;7.45;;;2.70;;
25838;SDS011;13669;50.186;27.062;2022-10-31T05:30:15;5.25;;;2.58;;
25838;SDS011;13669;50.186;27.062;2022-10-31T05:32:45;4.90;;;2.47;;
25838;SDS011;13669;50.186;27.062;2022-10-31T05:35:15;6.10;;;2.78;;
25838;SDS011;13669;50.186;27.062;2022-10-31T05:37:47;7.70;;;3.55;;
25838;SDS011;13669;50.186;27.062;2022-10-31T05:40:15;4.88;;;2.72;;
25838;SDS011;13669;50.186;27.062;2022-10-31T05:42:44;7.95;;;3.20;;
25838;SDS011;13669;50.186;27.062;2022-10-31T05:45:13;5.57;;;2.40;;
25838;SDS011;13669;50.186;27.062;2022-10-31T05:47:42;6.32;;;2.83;;
25838;SDS011;13669;50.186;27.062;2022-10-31T05:50:17;9.68;;;2.92;;
25838;SDS011;13669;50.186;27.062;2022-10-31T05:52:44;8.77;;;3.00;;
25838;SDS011;13669;50.186;27.062;2022-10-31T05:55:12;6.90;;;2.80;;
25838;SDS011;13669;50.186;27.062;2022-10-31T05:57:40;7.28;;;3.13;;
25838;SDS011;13669;50.186;27.062;2022-10-31T06:00:07;6.95;;;2.85;;
25838;SDS011;13669;50.186;27.062;2022-10-31T06:02:35;5.97;;;2.83;;
25838;SDS011;13669;50.186;27.062;2022-10-31T06:05:03;7.43;;;2.60;;
25838;SDS011;13669;50.186;27.062;2022-10-31T06:07:34;5.20;;;2.13;;
25838;SDS011;13669;50.186;27.062;2022-10-31T06:12:31;6.10;;;2.58;;
25838;SDS011;13669;50.186;27.062;2022-10-31T06:15:04;7.20;;;2.53;;
25838;SDS011;13669;50.186;27.062;2022-10-31T06:17:33;6.28;;;2.80;;
25838;SDS011;13669;50.186;27.062;2022-10-31T06:20:02;8.27;;;2.83;;
25838;SDS011;13669;50.186;27.062;2022-10-31T06:22:30;6.45;;;2.40;;
25838;SDS011;13669;50.186;27.062;2022-10-31T06:24:58;5.13;;;2.72;;
25838;SDS011;13669;50.186;27.062;2022-10-31T06:27:26;5.85;;;2.38;;
25838;SDS011;13669;50.186;27.062;2022-10-31T06:29:53;6.90;;;2.20;;
25838;SDS011;13669;50.186;27.062;2022-10-31T06:32:21;8.45;;;2.63;;
25838;SDS011;13669;50.186;27.062;2022-10-31T06:34:49;10.25;;;2.45;;
25838;SDS011;13669;50.186;27.062;2022-10-31T06:37:16;6.03;;;2.40;;
25838;SDS011;13669;50.186;27.062;2022-10-31T06:39:43;4.18;;;1.80;;
25838;SDS011;13669;50.186;27.062;2022-10-31T06:42:11;6.50;;;2.47;;
25838;SDS011;13669;50.186;27.062;2022-10-31T06:44:38;7.38;;;2.03;;
25838;SDS011;13669;50.186;27.062;2022-10-31T06:47:06;7.45;;;2.17;;
25838;SDS011;13669;50.186;27.062;2022-10-31T06:49:33;6.88;;;2.75;;
25838;SDS011;13669;50.186;27.062;2022-10-31T06:52:01;6.20;;;1.98;;
25838;SDS011;13669;50.186;27.062;2022-10-31T06:54:28;6.78;;;2.30;;
25838;SDS011;13669;50.186;27.062;2022-10-31T06:56:56;9.95;;;2.50;;
25838;SDS011;13669;50.186;27.062;2022-10-31T06:59:23;8.48;;;2.10;;
25838;SDS011;13669;50.186;27.062;2022-10-31T07:01:51;7.20;;;2.05;;
25838;SDS011;13669;50.186;27.062;2022-10-31T07:04:18;7.53;;;2.33;;
25838;SDS011;13669;50.186;27.062;2022-10-31T07:06:46;7.32;;;2.50;;
25838;SDS011;13669;50.186;27.062;2022-10-31T07:09:17;5.10;;;1.90;;
25838;SDS011;13669;50.186;27.062;2022-10-31T07:11:45;10.65;;;2.67;;
25838;SDS011;13669;50.186;27.062;2022-10-31T07:14:13;8.38;;;2.47;;
25838;SDS011;13669;50.186;27.062;2022-10-31T07:16:41;7.32;;;2.40;;
25838;SDS011;13669;50.186;27.062;2022-10-31T07:19:08;7.38;;;2.10;;
25838;SDS011;13669;50.186;27.062;2022-10-31T07:21:36;5.80;;;1.88;;
25838;SDS011;13669;50.186;27.062;2022-10-31T07:24:05;6.28;;;2.30;;
25838;SDS011;13669;50.186;27.062;2022-10-31T07:26:32;7.03;;;2.80;;
25838;SDS011;13669;50.186;27.062;2022-10-31T07:29:00;8.88;;;2.35;;
25838;SDS011;13669;50.186;27.062;2022-10-31T07:31:27;9.00;;;2.72;;
25838;SDS011;13669;50.186;27.062;2022-10-31T07:33:54;5.57;;;1.85;;
25838;SDS011;13669;50.186;27.062;2022-10-31T07:36:22;5.40;;;2.28;;
25838;SDS011;13669;50.186;27.062;2022-10-31T07:38:49;8.45;;;2.10;;
25838;SDS011;13669;50.186;27.062;2022-10-31T07:41:17;7.30;;;2.33;;
25838;SDS011;13669;50.186;27.062;2022-10-31T07:43:45;7.13;;;3.08;;
25838;SDS011;13669;50.186;27.062;2022-10-31T07:46:12;5.15;;;2.20;;
25838;SDS011;13669;50.186;27.062;2022-10-31T07:48:40;4.38;;;1.70;;
25838;SDS011;13669;50.186;27.062;2022-10-31T07:51:08;8.93;;;3.00;;
25838;SDS011;13669;50.186;27.062;2022-10-31T07:53:35;5.18;;;2.03;;
25838;SDS011;13669;50.186;27.062;2022-10-31T07:56:02;6.15;;;2.33;;
25838;SDS011;13669;50.186;27.062;2022-10-31T07:58:30;8.05;;;2.10;;
25838;SDS011;13669;50.186;27.062;2022-10-31T08:00:57;5.20;;;1.90;;
25838;SDS011;13669;50.186;27.062;2022-10-31T08:03:25;8.73;;;2.38;;
25838;SDS011;13669;50.186;27.062;2022-10-31T08:05:53;4.45;;;1.95;;
25838;SDS011;13669;50.186;27.062;2022-10-31T08:08:20;7.22;;;2.28;;
25838;SDS011;13669;50.186;27.062;2022-10-31T08:10:48;7.63;;;2.17;;
25838;SDS011;13669;50.186;27.062;2022-10-31T08:13:15;5.13;;;1.88;;
25838;SDS011;13669;50.186;27.062;2022-10-31T08:15:42;5.40;;;1.73;;
25838;SDS011;13669;50.186;27.062;2022-10-31T08:18:14;6.70;;;2.25;;
25838;SDS011;13669;50.186;27.062;2022-10-31T08:20:42;6.35;;;2.33;;
25838;SDS011;13669;50.186;27.062;2022-10-31T08:23:10;6.50;;;2.30;;
25838;SDS011;13669;50.186;27.062;2022-10-31T08:25:39;6.65;;;1.92;;
25838;SDS011;13669;50.186;27.062;2022-10-31T08:28:06;7.50;;;1.98;;
25838;SDS011;13669;50.186;27.062;2022-10-31T08:30:35;8.45;;;2.45;;
25838;SDS011;13669;50.186;27.062;2022-10-31T08:33:05;8.25;;;2.50;;
25838;SDS011;13669;50.186;27.062;2022-10-31T08:35:36;7.13;;;2.60;;
25838;SDS011;13669;50.186;27.062;2022-10-31T08:38:04;5.78;;;2.17;;
25838;SDS011;13669;50.186;27.062;2022-10-31T08:40:32;4.75;;;2.30;;
25838;SDS011;13669;50.186;27.062;2022-10-31T08:43:01;8.55;;;2.47;;
25838;SDS011;13669;50.186;27.062;2022-10-31T08:45:30;6.30;;;2.45;;
25838;SDS011;13669;50.186;27.062;2022-10-31T08:47:59;6.97;;;2.25;;
25838;SDS011;13669;50.186;27.062;2022-10-31T08:50:29;6.47;;;2.87;;
25838;SDS011;13669;50.186;27.062;2022-10-31T08:53:00;5.82;;;2.10;;
25838;SDS011;13669;50.186;27.062;2022-10-31T08:55:33;6.65;;;2.50;;
25838;SDS011;13669;50.186;27.062;2022-10-31T08:58:03;5.97;;;2.88;;
25838;SDS011;13669;50.186;27.062;2022-10-31T09:00:33;5.33;;;2.33;;
25838;SDS011;13669;50.186;27.062;2022-10-31T09:03:02;4.55;;;2.30;;
25838;SDS011;13669;50.186;27.062;2022-10-31T09:05:31;7.35;;;2.35;;
25838;SDS011;13669;50.186;27.062;2022-10-31T09:08:00;6.10;;;2.40;;
25838;SDS011;13669;50.186;27.062;2022-10-31T09:10:29;7.15;;;2.50;;
25838;SDS011;13669;50.186;27.062;2022-10-31T09:12:59;3.13;;;1.98;;
25838;SDS011;13669;50.186;27.062;2022-10-31T09:15:38;7.97;;;2.97;;
25838;SDS011;13669;50.186;27.062;2022-10-31T09:18:07;6.85;;;3.20;;
25838;SDS011;13669;50.186;27.062;2022-10-31T09:20:36;5.82;;;2.78;;
25838;SDS011;13669;50.186;27.062;2022-10-31T09:26:01;6.10;;;2.08;;
25838;SDS011;13669;50.186;27.062;2022-10-31T09:28:30;6.20;;;1.70;;
25838;SDS011;13669;50.186;27.062;2022-10-31T09:30:59;3.83;;;2.20;;
25838;SDS011;13669;50.186;27.062;2022-10-31T09:33:26;5.78;;;2.00;;
25838;SDS011;13669;50.186;27.062;2022-10-31T09:35:54;5.70;;;2.38;;
25838;SDS011;13669;50.186;27.062;2022-10-31T09:38:21;6.20;;;3.42;;
25838;SDS011;13669;50.186;27.062;2022-10-31T09:41:07;7.03;;;2.83;;
25838;SDS011;13669;50.186;27.062;2022-10-31T09:43:46;3.63;;;2.00;;
25838;SDS011;13669;50.186;27.062;2022-10-31T09:52:01;5.80;;;2.47;;
25838;SDS011;13669;50.186;27.062;2022-10-31T09:57:13;6.30;;;2.28;;
25838;SDS011;13669;50.186;27.062;2022-10-31T09:59:43;4.60;;;2.57;;
25838;SDS011;13669;50.186;27.062;2022-10-31T10:04:56;6.90;;;1.75;;
25838;SDS011;13669;50.186;27.062;2022-10-31T10:09:59;3.70;;;1.63;;
25838;SDS011;13669;50.186;27.062;2022-10-31T10:29:44;4.43;;;1.80;;
25838;SDS011;13669;50.186;27.062;2022-10-31T10:32:27;3.72;;;1.65;;
25838;SDS011;13669;50.186;27.062;2022-10-31T10:37:49;3.58;;;1.65;;
25838;SDS011;13669;50.186;27.062;2022-10-31T10:40:21;3.97;;;1.80;;
25838;SDS011;13669;50.186;27.062;2022-10-31T10:45:51;5.18;;;2.00;;
25838;SDS011;13669;50.186;27.062;2022-10-31T11:02:56;4.32;;;1.80;;
25838;SDS011;13669;50.186;27.062;2022-10-31T11:05:39;7.20;;;2.53;;
25838;SDS011;13669;50.186;27.062;2022-10-31T11:08:25;6.93;;;1.50;;
25838;SDS011;13669;50.186;27.062;2022-10-31T11:11:02;4.68;;;1.70;;
25838;SDS011;13669;50.186;27.062;2022-10-31T11:13:32;3.60;;;1.25;;
25838;SDS011;13669;50.186;27.062;2022-10-31T11:16:10;4.30;;;1.52;;
25838;SDS011;13669;50.186;27.062;2022-10-31T11:18:53;4.60;;;1.27;;
25838;SDS011;13669;50.186;27.062;2022-10-31T11:21:31;5.00;;;1.15;;
25838;SDS011;13669;50.186;27.062;2022-10-31T11:24:22;3.75;;;1.20;;
25838;SDS011;13669;50.186;27.062;2022-10-31T11:26:50;4.15;;;1.25;;
25838;SDS011;13669;50.186;27.062;2022-10-31T11:29:23;3.80;;;1.42;;
25838;SDS011;13669;50.186;27.062;2022-10-31T11:31:52;3.28;;;1.48;;
25838;SDS011;13669;50.186;27.062;2022-10-31T11:37:03;2.90;;;1.20;;
25838;SDS011;13669;50.186;27.062;2022-10-31T11:39:46;4.32;;;1.20;;
25838;SDS011;13669;50.186;27.062;2022-10-31T11:42:23;3.00;;;1.23;;
25838;SDS011;13669;50.186;27.062;2022-10-31T11:44:53;1.80;;;1.13;;
25838;SDS011;13669;50.186;27.062;2022-10-31T11:47:30;3.30;;;1.02;;
25838;SDS011;13669;50.186;27.062;2022-10-31T11:50:09;3.35;;;1.20;;
25838;SDS011;13669;50.186;27.062;2022-10-31T11:52:42;4.40;;;1.25;;
25838;SDS011;13669;50.186;27.062;2022-10-31T11:57:44;3.53;;;1.27;;
25838;SDS011;13669;50.186;27.062;2022-10-31T12:06:08;4.40;;;1.42;;
25838;SDS011;13669;50.186;27.062;2022-10-31T12:08:44;5.30;;;1.65;;
25838;SDS011;13669;50.186;27.062;2022-10-31T12:23:06;4.32;;;1.38;;
25838;SDS011;13669;50.186;27.062;2022-10-31T12:58:26;3.97;;;1.50;;
25838;SDS011;13669;50.186;27.062;2022-10-31T13:06:38;5.90;;;2.03;;
25838;SDS011;13669;50.186;27.062;2022-10-31T13:09:13;4.07;;;1.65;;
25838;SDS011;13669;50.186;27.062;2022-10-31T13:11:56;4.43;;;1.30;;
25838;SDS011;13669;50.186;27.062;2022-10-31T13:14:39;4.53;;;1.70;;
25838;SDS011;13669;50.186;27.062;2022-10-31T13:17:20;4.03;;;1.63;;
25838;SDS011;13669;50.186;27.062;2022-10-31T13:19:51;2.97;;;1.60;;
25838;SDS011;13669;50.186;27.062;2022-10-31T13:22:26;4.45;;;1.80;;
25838;SDS011;13669;50.186;27.062;2022-10-31T13:25:05;4.68;;;1.40;;
25838;SDS011;13669;50.186;27.062;2022-10-31T13:28:00;5.30;;;1.63;;
25838;SDS011;13669;50.186;27.062;2022-10-31T13:30:46;3.03;;;1.67;;
25838;SDS011;13669;50.186;27.062;2022-10-31T13:33:25;3.00;;;1.60;;
25838;SDS011;13669;50.186;27.062;2022-10-31T13:38:42;4.28;;;1.20;;
25838;SDS011;13669;50.186;27.062;2022-10-31T13:44:11;3.83;;;1.38;;
25838;SDS011;13669;50.186;27.062;2022-10-31T13:46:41;4.27;;;1.50;;
25838;SDS011;13669;50.186;27.062;2022-10-31T13:51:50;5.65;;;2.50;;
25838;SDS011;13669;50.186;27.062;2022-10-31T13:54:31;3.78;;;1.60;;
25838;SDS011;13669;50.186;27.062;2022-10-31T13:57:00;8.02;;;2.40;;
25838;SDS011;13669;50.186;27.062;2022-10-31T13:59:28;14.80;;;6.22;;
25838;SDS011;13669;50.186;27.062;2022-10-31T14:01:59;15.30;;;8.20;;
25838;SDS011;13669;50.186;27.062;2022-10-31T14:04:43;17.75;;;9.07;;
25838;SDS011;13669;50.186;27.062;2022-10-31T14:07:14;12.20;;;6.80;;
25838;SDS011;13669;50.186;27.062;2022-10-31T14:09:52;18.77;;;10.82;;
25838;SDS011;13669;50.186;27.062;2022-10-31T14:12:39;23.05;;;13.57;;
25838;SDS011;13669;50.186;27.062;2022-10-31T14:15:16;29.77;;;15.68;;
25838;SDS011;13669;50.186;27.062;2022-10-31T14:17:46;24.73;;;11.73;;
25838;SDS011;13669;50.186;27.062;2022-10-31T14:31:42;4.20;;;1.90;;
25838;SDS011;13669;50.186;27.062;2022-10-31T14:34:38;5.70;;;2.13;;
25838;SDS011;13669;50.186;27.062;2022-10-31T14:51:23;8.25;;;3.10;;
25838;SDS011;13669;50.186;27.062;2022-10-31T14:53:55;10.95;;;4.22;;
25838;SDS011;13669;50.186;27.062;2022-10-31T14:56:27;20.10;;;9.48;;
25838;SDS011;13669;50.186;27.062;2022-10-31T14:58:58;17.20;;;7.70;;
25838;SDS011;13669;50.186;27.062;2022-10-31T15:01:31;10.02;;;5.20;;
25838;SDS011;13669;50.186;27.062;2022-10-31T15:04:03;15.07;;;8.45;;
25838;SDS011;13669;50.186;27.062;2022-10-31T15:07:02;37.25;;;20.30;;
25838;SDS011;13669;50.186;27.062;2022-10-31T15:09:36;42.20;;;20.67;;
25838;SDS011;13669;50.186;27.062;2022-10-31T15:14:50;59.08;;;27.15;;
25838;SDS011;13669;50.186;27.062;2022-10-31T15:17:19;80.28;;;30.05;;
25838;SDS011;13669;50.186;27.062;2022-10-31T15:19:47;104.68;;;36.28;;
25838;SDS011;13669;50.186;27.062;2022-10-31T15:22:17;57.53;;;25.58;;
25838;SDS011;13669;50.186;27.062;2022-10-31T15:24:47;34.40;;;18.10;;
25838;SDS011;13669;50.186;27.062;2022-10-31T15:27:23;17.52;;;7.82;;
25838;SDS011;13669;50.186;27.062;2022-10-31T15:29:52;21.67;;;9.65;;
25838;SDS011;13669;50.186;27.062;2022-10-31T15:32:25;8.27;;;4.57;;
25838;SDS011;13669;50.186;27.062;2022-10-31T15:34:54;19.77;;;9.23;;
25838;SDS011;13669;50.186;27.062;2022-10-31T15:37:24;8.38;;;4.07;;
25838;SDS011;13669;50.186;27.062;2022-10-31T15:39:53;8.00;;;4.03;;
25838;SDS011;13669;50.186;27.062;2022-10-31T15:42:41;5.32;;;2.30;;
25838;SDS011;13669;50.186;27.062;2022-10-31T15:47:36;50.03;;;17.90;;
25838;SDS011;13669;50.186;27.062;2022-10-31T15:50:05;83.50;;;30.27;;
25838;SDS011;13669;50.186;27.062;2022-10-31T15:52:46;40.00;;;16.92;;
25838;SDS011;13669;50.186;27.062;2022-10-31T15:57:48;60.08;;;21.00;;
25838;SDS011;13669;50.186;27.062;2022-10-31T16:03:07;14.60;;;7.00;;
25838;SDS011;13669;50.186;27.062;2022-10-31T16:13:28;73.70;;;34.55;;
25838;SDS011;13669;50.186;27.062;2022-10-31T16:15:59;25.98;;;13.75;;
25838;SDS011;13669;50.186;27.062;2022-10-31T16:18:48;32.08;;;15.23;;
25838;SDS011;13669;50.186;27.062;2022-10-31T16:24:18;19.67;;;10.20;;
25838;SDS011;13669;50.186;27.062;2022-10-31T16:26:52;17.17;;;7.33;;
25838;SDS011;13669;50.186;27.062;2022-10-31T16:29:43;24.75;;;13.98;;
25838;SDS011;13669;50.186;27.062;2022-10-31T16:32:26;83.70;;;48.97;;
25838;SDS011;13669;50.186;27.062;2022-10-31T16:35:00;84.45;;;50.50;;
25838;SDS011;13669;50.186;27.062;2022-10-31T16:37:48;53.97;;;32.60;;
25838;SDS011;13669;50.186;27.062;2022-10-31T16:40:15;11.80;;;5.55;;
25838;SDS011;13669;50.186;27.062;2022-10-31T16:42:43;5.13;;;2.35;;
25838;SDS011;13669;50.186;27.062;2022-10-31T16:45:21;12.57;;;7.50;;
25838;SDS011;13669;50.186;27.062;2022-10-31T16:47:51;5.60;;;3.05;;
25838;SDS011;13669;50.186;27.062;2022-10-31T16:52:50;7.25;;;2.55;;
25838;SDS011;13669;50.186;27.062;2022-10-31T16:55:41;7.32;;;2.40;;
25838;SDS011;13669;50.186;27.062;2022-10-31T16:58:26;7.68;;;2.30;;
25838;SDS011;13669;50.186;27.062;2022-10-31T17:00:56;8.23;;;3.17;;
25838;SDS011;13669;50.186;27.062;2022-10-31T17:03:24;15.45;;;7.18;;
25838;SDS011;13669;50.186;27.062;2022-10-31T17:05:52;24.90;;;11.13;;
25838;SDS011;13669;50.186;27.062;2022-10-31T17:08:22;6.97;;;2.97;;
25838;SDS011;13669;50.186;27.062;2022-10-31T17:10:51;6.70;;;2.50;;
25838;SDS011;13669;50.186;27.062;2022-10-31T17:13:26;8.40;;;1.95;;
25838;SDS011;13669;50.186;27.062;2022-10-31T17:15:57;4.28;;;2.00;;
25838;SDS011;13669;50.186;27.062;2022-10-31T17:18:26;7.68;;;2.47;;
25838;SDS011;13669;50.186;27.062;2022-10-31T17:20:57;22.52;;;10.65;;
25838;SDS011;13669;50.186;27.062;2022-10-31T17:23:27;35.28;;;16.80;;
25838;SDS011;13669;50.186;27.062;2022-10-31T17:25:55;29.63;;;14.52;;
25838;SDS011;13669;50.186;27.062;2022-10-31T17:28:23;26.65;;;13.10;;
25838;SDS011;13669;50.186;27.062;2022-10-31T17:30:55;20.90;;;11.23;;
25838;SDS011;13669;50.186;27.062;2022-10-31T17:33:25;17.35;;;8.77;;
25838;SDS011;13669;50.186;27.062;2022-10-31T17:35:53;16.75;;;8.52;;
25838;SDS011;13669;50.186;27.062;2022-10-31T17:38:20;39.60;;;20.58;;
25838;SDS011;13669;50.186;27.062;2022-10-31T17:40:47;30.30;;;15.50;;
25838;SDS011;13669;50.186;27.062;2022-10-31T17:43:15;26.30;;;13.27;;
25838;SDS011;13669;50.186;27.062;2022-10-31T17:45:42;24.75;;;11.70;;
25838;SDS011;13669;50.186;27.062;2022-10-31T17:48:10;16.27;;;8.48;;
25838;SDS011;13669;50.186;27.062;2022-10-31T17:50:38;13.45;;;7.30;;
25838;SDS011;13669;50.186;27.062;2022-10-31T17:53:07;12.43;;;6.13;;
25838;SDS011;13669;50.186;27.062;2022-10-31T17:55:34;12.18;;;5.90;;
25838;SDS011;13669;50.186;27.062;2022-10-31T17:58:06;10.25;;;4.78;;
25838;SDS011;13669;50.186;27.062;2022-10-31T18:00:38;19.15;;;7.63;;
25838;SDS011;13669;50.186;27.062;2022-10-31T18:03:14;17.90;;;8.68;;
25838;SDS011;13669;50.186;27.062;2022-10-31T18:05:49;25.88;;;13.07;;
25838;SDS011;13669;50.186;27.062;2022-10-31T18:08:18;32.45;;;17.05;;
25838;SDS011;13669;50.186;27.062;2022-10-31T18:10:45;20.85;;;10.55;;
25838;SDS011;13669;50.186;27.062;2022-10-31T18:13:12;58.55;;;35.58;;
25838;SDS011;13669;50.186;27.062;2022-10-31T18:15:40;16.50;;;8.30;;
25838;SDS011;13669;50.186;27.062;2022-10-31T18:18:07;13.23;;;6.28;;
25838;SDS011;13669;50.186;27.062;2022-10-31T18:20:35;11.40;;;6.40;;
25838;SDS011;13669;50.186;27.062;2022-10-31T18:23:02;8.45;;;4.78;;
25838;SDS011;13669;50.186;27.062;2022-10-31T18:25:30;7.38;;;3.92;;
25838;SDS011;13669;50.186;27.062;2022-10-31T18:27:57;8.18;;;3.95;;
25838;SDS011;13669;50.186;27.062;2022-10-31T18:30:25;12.15;;;6.10;;
25838;SDS011;13669;50.186;27.062;2022-10-31T18:32:52;16.85;;;9.02;;
25838;SDS011;13669;50.186;27.062;2022-10-31T18:35:20;27.10;;;11.93;;